Dripping Springs, Texas
Current Conditions -  °F | °C
As of 6:51 AM on Thursday 27 Nov 2014 (Local Time) from KATT Reporting Station
Clear Clear  
Wind Chill: 43°   Ceiling: Unl
Heat Index: 47°   Visibility: 10mi
Dew Point: 32°   Wind: 9mph
Humidity: 56%   Direction: 30°NNE
Pressure: 30.48"   Gusts: NA
Location:  30.19°N, 98.09°W
Report Text: KATT 271251Z AUTO 03008KT 10SM CLR 08/00 A3048 RMK AO2 SLP323 T00830000
Loading
Personal Weather Stations






























Interactive Weather Map New forecast layout! Learn more

10-Day Weather Forecast

Advertisements
Track Severe Weather on mobile